Huvudsida
METAR-TAF:

METAR-TAF

Flygplatser :

Ålesund, Norge

Ålesunds flygplats. Vigra

latitud: 62-34N, longitud: 006-07E, höjd: 2 m

Aktuellt väderrapport

Denna rapport gjordes för 19 minuter sedan, klockan 03:20 UTC
Vind 13 kt från sydost
Temperatur 2°C
Fuktighet 60%
Tryck 991 hPa
Sikt 10 km eller mer

METAR: ENAL 190320Z AUTO 13013KT 9999 OVC062/// 02/M05 Q0991

Tid: 04:39 (03:39 UTC)

Väderprognos

Denna rapport gjordes för 7 timmar och 42 minuter sedan, klockan 19:57 UTC
Prognos gäller från 18 kl. 19 UTC till 18 kl. 23 UTC
Vind 10 kt från syd/sydost
Sikt 10 km eller mer
Spridda moln på en höjd av 5000 ft
Sannolikhet 30% :
Temporärt
från 18 kl. 19 UTC till 18 kl. 23 UTC
Sikt: 2500 m
på en höjd av 1200 ft
lätta snöbyar, åska

TAF: ENAL 181957Z 1819/1823 16010KT 9999 SCT050 PROB30 TEMPO 1819/1823 2500 -SHSN TS VV012

Aktuella väderrapporter och prognoser från 4000 flygplatser (METAR- och TAF-rapporter).

De tillgängliga stationerna syns som gula och röda prickar på kartan.

För musen över prickarna för att se namnen på stationerna.

Klicka sedan för att få väderrapporter och prognoser.

För att ändra kartan: Klicka på de gröna knapparna med ett svart kors på för att zooma in; den gröna knappen med ett streck på för att zooma ut; eller på de gröna pilarna för angränsande kartor.


METAR-TAF: